createdAt,value
2023-04-07T00:01:34.438Z,8.30
2023-04-07T00:04:02.699Z,9.53
2023-04-07T00:06:30.874Z,8.60
2023-04-07T00:08:58.759Z,9.90
2023-04-07T00:11:26.721Z,8.80
2023-04-07T00:13:56.404Z,8.83
2023-04-07T00:16:24.583Z,9.87
2023-04-07T00:18:52.571Z,8.80
2023-04-07T00:21:20.563Z,10.40
2023-04-07T00:23:48.768Z,7.93
2023-04-07T00:26:16.706Z,8.87
2023-04-07T00:28:44.660Z,9.53
2023-04-07T00:31:14.202Z,9.30
2023-04-07T00:33:42.171Z,12.77
2023-04-07T00:36:10.425Z,8.90
2023-04-07T00:38:38.363Z,8.23
2023-04-07T00:41:06.342Z,8.63
2023-04-07T00:43:34.308Z,9.23
2023-04-07T00:46:02.937Z,8.53
2023-04-07T00:48:32.552Z,7.93
2023-04-07T00:51:01.287Z,8.27
2023-04-07T00:53:30.548Z,9.70
2023-04-07T00:55:58.701Z,10.13
2023-04-07T00:58:26.952Z,7.87
2023-04-07T01:01:04.605Z,9.97
2023-04-07T01:03:38.138Z,11.00
2023-04-07T01:06:09.134Z,8.97
2023-04-07T01:08:49.843Z,9.90
2023-04-07T01:11:24.508Z,10.57
2023-04-07T01:13:54.028Z,7.53
2023-04-07T01:16:28.174Z,9.27
2023-04-07T01:19:02.759Z,9.17
2023-04-07T01:21:35.023Z,8.00
2023-04-07T01:24:14.411Z,7.13
2023-04-07T01:26:42.712Z,8.73
2023-04-07T01:29:47.923Z,11.43
2023-04-07T01:32:16.444Z,8.97
2023-04-07T01:34:46.791Z,9.77
2023-04-07T01:37:15.458Z,9.57
2023-04-07T01:39:43.998Z,10.60
2023-04-07T01:42:12.715Z,7.30
2023-04-07T01:44:41.571Z,8.20
2023-04-07T01:47:11.156Z,9.40
2023-04-07T01:49:41.747Z,9.47
2023-04-07T01:52:10.636Z,8.03
2023-04-07T01:54:38.910Z,11.47
2023-04-07T01:57:06.988Z,9.17
2023-04-07T01:59:34.872Z,9.40
2023-04-07T02:02:03.045Z,7.30
2023-04-07T02:04:37.287Z,7.87
2023-04-07T02:07:19.236Z,9.43
2023-04-07T02:09:48.642Z,8.50
2023-04-07T02:12:17.920Z,8.07
2023-04-07T02:14:46.184Z,8.00
2023-04-07T02:17:15.781Z,8.47
2023-04-07T02:19:46.101Z,10.33
2023-04-07T02:22:16.491Z,8.60
2023-04-07T02:24:44.722Z,11.70
2023-04-07T02:27:12.621Z,11.77
2023-04-07T02:29:41.355Z,12.27
2023-04-07T02:32:09.337Z,11.53
2023-04-07T02:34:37.641Z,14.57
2023-04-07T02:37:06.934Z,14.87
2023-04-07T02:39:34.884Z,14.90
2023-04-07T02:42:02.748Z,14.27
2023-04-07T02:44:31.228Z,16.80
2023-04-07T02:46:59.214Z,14.23
2023-04-07T02:49:27.177Z,14.00
2023-04-07T02:51:55.081Z,17.00
2023-04-07T02:54:24.440Z,15.13
2023-04-07T02:56:52.317Z,14.70
2023-04-07T02:59:20.254Z,16.57
2023-04-07T03:01:48.235Z,14.67
2023-04-07T03:04:16.638Z,14.00
2023-04-07T03:06:44.668Z,19.83
2023-04-07T03:09:12.796Z,15.70
2023-04-07T03:11:42.623Z,17.37
2023-04-07T03:14:10.625Z,16.27
2023-04-07T03:16:38.506Z,19.03
2023-04-07T03:19:07.488Z,17.27
2023-04-07T03:21:35.466Z,16.13
2023-04-07T03:24:03.354Z,20.37
2023-04-07T03:26:31.586Z,17.37
2023-04-07T03:29:00.903Z,18.30
2023-04-07T03:31:30.414Z,18.47
2023-04-07T03:33:58.319Z,19.80
2023-04-07T03:36:27.976Z,18.43
2023-04-07T03:38:56.113Z,18.47
2023-04-07T03:41:23.969Z,17.07
2023-04-07T03:43:52.045Z,19.27
2023-04-07T03:46:22.167Z,20.13
2023-04-07T03:48:50.800Z,22.67
2023-04-07T03:51:18.684Z,21.60
2023-04-07T03:53:46.554Z,19.90
2023-04-07T03:56:14.547Z,21.57
2023-04-07T03:58:46.537Z,20.97
2023-04-07T04:01:14.784Z,18.67
2023-04-07T04:03:44.228Z,21.90
2023-04-07T04:06:12.332Z,24.30
2023-04-07T04:08:40.404Z,19.10
2023-04-07T04:11:08.395Z,20.03
2023-04-07T04:13:36.689Z,23.50
2023-04-07T04:16:05.183Z,21.40
2023-04-07T04:18:33.128Z,22.17
2023-04-07T04:21:02.390Z,22.57
2023-04-07T04:23:30.344Z,19.30
2023-04-07T04:26:00.096Z,19.63
2023-04-07T04:28:27.973Z,20.73
2023-04-07T04:30:56.055Z,18.67
2023-04-07T04:33:24.097Z,18.60
2023-04-07T04:35:52.017Z,20.33
2023-04-07T04:38:21.502Z,22.43
2023-04-07T04:40:49.427Z,22.93
2023-04-07T04:43:17.338Z,22.60
2023-04-07T04:45:45.536Z,19.20
2023-04-07T04:48:13.383Z,19.93
2023-04-07T04:50:42.922Z,25.27
2023-04-07T04:53:11.218Z,22.10
2023-04-07T04:55:42.940Z,20.40
2023-04-07T04:58:10.811Z,19.47
2023-04-07T05:00:38.764Z,20.57
2023-04-07T05:03:07.036Z,21.30
2023-04-07T05:05:35.062Z,20.13
2023-04-07T05:08:02.993Z,21.00
2023-04-07T05:10:30.961Z,18.07
2023-04-07T05:13:00.366Z,19.53
2023-04-07T05:15:28.293Z,16.97
2023-04-07T05:17:56.280Z,18.53
2023-04-07T05:20:24.256Z,17.30
2023-04-07T05:22:52.172Z,16.20
2023-04-07T05:25:20.018Z,16.40
2023-04-07T05:27:47.964Z,15.23
2023-04-07T05:30:17.684Z,17.33
2023-04-07T05:32:45.683Z,13.50
2023-04-07T05:35:13.823Z,15.83
2023-04-07T05:37:41.780Z,13.67
2023-04-07T05:40:10.666Z,14.80
2023-04-07T05:42:38.615Z,13.87
2023-04-07T05:45:07.616Z,12.73
2023-04-07T05:47:36.885Z,13.07
2023-04-07T05:50:05.229Z,14.53
2023-04-07T05:52:33.196Z,12.17
2023-04-07T05:55:01.453Z,14.63
2023-04-07T05:57:29.460Z,12.37
2023-04-07T05:59:57.517Z,12.80
2023-04-07T06:02:25.860Z,10.73
2023-04-07T06:04:55.327Z,13.47
2023-04-07T06:07:23.284Z,11.40
2023-04-07T06:09:51.462Z,12.80
2023-04-07T06:12:19.329Z,12.80
2023-04-07T06:14:52.449Z,11.53
2023-04-07T06:17:20.682Z,11.40
2023-04-07T06:19:48.687Z,13.13
2023-04-07T06:22:17.986Z,14.53
2023-04-07T06:24:45.910Z,13.47
2023-04-07T06:27:13.794Z,8.77
2023-04-07T06:29:42.511Z,13.97
2023-04-07T06:32:10.380Z,10.37
2023-04-07T06:34:38.327Z,13.03
2023-04-07T06:37:06.799Z,8.20
2023-04-07T06:39:36.609Z,7.43
2023-04-07T06:42:04.687Z,7.83
2023-04-07T06:44:32.665Z,8.77
2023-04-07T06:47:00.533Z,5.93
2023-04-07T06:49:28.439Z,6.57
2023-04-07T06:51:56.388Z,6.13
2023-04-07T06:54:24.648Z,6.17
2023-04-07T06:56:54.666Z,6.43
2023-04-07T06:59:22.624Z,5.80
2023-04-07T07:01:50.725Z,5.30
2023-04-07T07:04:19.160Z,6.00
2023-04-07T07:06:47.432Z,6.27
2023-04-07T07:09:16.063Z,8.70
2023-04-07T07:11:43.994Z,5.40
2023-04-07T07:14:13.276Z,8.03
2023-04-07T07:16:41.230Z,7.73
2023-04-07T07:19:09.599Z,5.17
2023-04-07T07:21:37.746Z,4.83
2023-04-07T07:24:06.129Z,5.50
2023-04-07T07:26:34.057Z,5.77
2023-04-07T07:29:01.980Z,6.03
2023-04-07T07:31:31.503Z,6.27
2023-04-07T07:33:59.841Z,7.87
2023-04-07T07:36:28.071Z,9.37
2023-04-07T07:38:56.066Z,5.53
2023-04-07T07:41:24.003Z,5.33
2023-04-07T07:43:51.935Z,4.77
2023-04-07T07:46:20.090Z,5.77
2023-04-07T07:48:49.533Z,5.77
2023-04-07T07:51:18.326Z,8.57
2023-04-07T07:53:46.768Z,5.17
2023-04-07T07:56:14.876Z,5.90
2023-04-07T07:58:42.802Z,4.87
2023-04-07T08:01:11.120Z,4.90
2023-04-07T08:03:39.321Z,5.17
2023-04-07T08:06:09.516Z,5.00
2023-04-07T08:08:37.452Z,5.07
2023-04-07T08:11:05.642Z,6.43
2023-04-07T08:13:33.520Z,6.37
2023-04-07T08:16:01.490Z,5.33
2023-04-07T08:18:29.525Z,4.83
2023-04-07T08:20:57.495Z,8.37
2023-04-07T08:23:27.084Z,5.77
2023-04-07T08:25:55.520Z,7.17
2023-04-07T08:28:23.428Z,5.97
2023-04-07T08:30:51.339Z,6.77
2023-04-07T08:33:21.654Z,7.73
2023-04-07T08:35:50.833Z,6.47
2023-04-07T08:38:18.847Z,6.27
2023-04-07T08:40:50.783Z,8.30
2023-04-07T08:43:21.128Z,5.97
2023-04-07T08:45:51.182Z,6.20
2023-04-07T08:48:26.762Z,6.00
2023-04-07T08:50:55.684Z,6.90
2023-04-07T08:53:29.875Z,8.43
2023-04-07T08:55:59.673Z,5.53
2023-04-07T08:58:28.256Z,6.30
2023-04-07T09:00:56.581Z,6.53
2023-04-07T09:03:25.450Z,8.13
2023-04-07T09:05:56.303Z,6.47
2023-04-07T09:08:24.477Z,5.60
2023-04-07T09:10:52.514Z,6.87
2023-04-07T09:13:21.894Z,6.20
2023-04-07T09:15:49.841Z,8.70
2023-04-07T09:18:17.892Z,6.00
2023-04-07T09:20:59.208Z,7.10
2023-04-07T09:23:31.844Z,8.27
2023-04-07T09:26:03.132Z,6.83
2023-04-07T09:28:43.896Z,6.60
2023-04-07T09:31:11.847Z,8.07
2023-04-07T09:33:40.162Z,8.53
2023-04-07T09:36:08.684Z,6.30
2023-04-07T09:38:39.164Z,6.73
2023-04-07T09:41:08.829Z,8.53
2023-04-07T09:43:42.398Z,6.47
2023-04-07T09:46:12.523Z,7.90
2023-04-07T09:48:40.882Z,7.90
2023-04-07T09:51:11.251Z,7.50
2023-04-07T09:53:50.602Z,5.80
2023-04-07T09:56:19.941Z,9.30
2023-04-07T09:58:51.744Z,6.53
2023-04-07T10:01:20.176Z,5.40
2023-04-07T10:03:49.140Z,5.67
2023-04-07T10:06:17.965Z,6.83
2023-04-07T10:08:46.149Z,5.30
2023-04-07T10:11:14.409Z,7.37
2023-04-07T10:13:43.238Z,8.43
2023-04-07T10:16:12.870Z,8.23
2023-04-07T10:18:42.408Z,6.63
2023-04-07T10:21:15.250Z,7.20
2023-04-07T10:23:51.607Z,9.73
2023-04-07T10:26:23.784Z,11.70
2023-04-07T10:28:56.405Z,8.83
2023-04-07T10:31:26.458Z,10.60
2023-04-07T10:33:56.460Z,11.10
2023-04-07T10:36:24.610Z,9.97
2023-04-07T10:39:21.047Z,13.23
2023-04-07T10:41:49.118Z,10.27
2023-04-07T10:44:53.072Z,10.63
2023-04-07T10:47:22.374Z,9.00
2023-04-07T10:50:16.639Z,11.30
2023-04-07T10:52:45.037Z,10.87
2023-04-07T10:55:40.620Z,19.10
2023-04-07T10:58:16.186Z,10.43
2023-04-07T11:00:44.701Z,11.63
2023-04-07T11:03:15.001Z,10.77
2023-04-07T11:05:43.907Z,10.10
2023-04-07T11:08:11.859Z,13.63
2023-04-07T11:10:40.425Z,12.63
2023-04-07T11:13:09.023Z,9.93
2023-04-07T11:15:40.260Z,9.17
2023-04-07T11:18:16.720Z,9.50
2023-04-07T11:20:50.407Z,9.33
2023-04-07T11:23:19.810Z,9.83
2023-04-07T11:25:49.831Z,8.97
2023-04-07T11:28:18.232Z,8.97
2023-04-07T11:30:48.715Z,7.93
2023-04-07T11:33:19.505Z,7.93
2023-04-07T11:35:56.739Z,10.33
2023-04-07T11:38:27.219Z,11.50
2023-04-07T11:40:55.987Z,12.63
2023-04-07T11:43:25.261Z,11.90
2023-04-07T11:46:09.468Z,11.47
2023-04-07T11:48:40.261Z,11.90
2023-04-07T11:51:16.370Z,11.03
2023-04-07T11:53:44.471Z,9.70
2023-04-07T11:56:16.783Z,9.77
2023-04-07T11:58:48.851Z,11.57
2023-04-07T12:01:16.958Z,10.00
2023-04-07T12:03:59.916Z,10.77
2023-04-07T12:06:30.395Z,10.70
2023-04-07T12:08:58.339Z,9.30
2023-04-07T12:11:26.596Z,9.57
2023-04-07T12:13:54.679Z,9.50
2023-04-07T12:16:23.032Z,8.93
2023-04-07T12:18:52.012Z,11.53
2023-04-07T12:21:21.753Z,8.73
2023-04-07T12:23:50.027Z,9.80
2023-04-07T12:26:19.332Z,10.50
2023-04-07T12:28:48.455Z,13.90
2023-04-07T12:31:16.357Z,11.10
2023-04-07T12:33:44.239Z,10.63
2023-04-07T12:36:12.612Z,13.37
2023-04-07T12:38:42.353Z,12.77
2023-04-07T12:41:10.325Z,11.70
2023-04-07T12:43:38.275Z,11.43
2023-04-07T12:46:06.418Z,13.43
2023-04-07T12:48:34.329Z,11.13
2023-04-07T12:51:02.378Z,12.83
2023-04-07T12:53:30.357Z,12.43
2023-04-07T12:56:00.116Z,12.20
2023-04-07T12:58:28.111Z,9.00
2023-04-07T13:00:56.716Z,12.23
2023-04-07T13:03:24.869Z,13.07
2023-04-07T13:05:55.034Z,10.50
2023-04-07T13:08:22.964Z,11.87
2023-04-07T13:10:50.848Z,13.07
2023-04-07T13:13:20.206Z,14.37
2023-04-07T13:15:48.027Z,12.10
2023-04-07T13:18:15.913Z,10.10
2023-04-07T13:20:45.385Z,11.83
2023-04-07T13:23:19.600Z,10.37
2023-04-07T13:25:47.650Z,12.63
2023-04-07T13:28:18.259Z,9.63
2023-04-07T13:30:47.826Z,12.23
2023-04-07T13:33:16.662Z,11.33
2023-04-07T13:35:44.557Z,9.43
2023-04-07T13:38:12.872Z,9.20
2023-04-07T13:40:41.423Z,12.07
2023-04-07T13:43:11.437Z,10.27
2023-04-07T13:45:39.399Z,11.77
2023-04-07T13:48:08.669Z,8.07
2023-04-07T13:50:37.813Z,9.27
2023-04-07T13:53:06.762Z,9.47
2023-04-07T13:55:34.633Z,9.40
2023-04-07T13:58:02.567Z,10.47
2023-04-07T14:00:30.609Z,13.90
2023-04-07T14:02:58.625Z,8.70
2023-04-07T14:05:28.000Z,6.60
2023-04-07T14:07:55.917Z,6.77
2023-04-07T14:10:23.849Z,8.27
2023-04-07T14:12:52.440Z,9.10
2023-04-07T14:15:20.465Z,10.83
2023-04-07T14:17:48.401Z,9.30
2023-04-07T14:20:16.372Z,9.50
2023-04-07T14:22:45.647Z,7.40
2023-04-07T14:25:13.570Z,11.03
2023-04-07T14:27:41.523Z,8.13
2023-04-07T14:30:10.768Z,6.77
2023-04-07T14:32:38.822Z,7.73
2023-04-07T14:35:07.844Z,8.07
2023-04-07T14:37:36.206Z,9.63
2023-04-07T14:40:06.829Z,7.60
2023-04-07T14:42:35.670Z,10.87
2023-04-07T14:45:04.530Z,6.60
2023-04-07T14:47:32.505Z,8.70
2023-04-07T14:50:00.464Z,10.27
2023-04-07T14:52:28.409Z,6.60
2023-04-07T14:54:58.425Z,7.80
2023-04-07T14:57:28.964Z,7.37
2023-04-07T14:59:56.846Z,7.20
2023-04-07T15:02:24.838Z,6.00
2023-04-07T15:04:52.980Z,9.53
2023-04-07T15:07:20.953Z,9.47
2023-04-07T15:09:49.037Z,9.57
2023-04-07T15:12:16.989Z,12.47
2023-04-07T15:14:47.017Z,7.90
2023-04-07T15:17:14.925Z,8.40
2023-04-07T15:19:43.207Z,11.03
2023-04-07T15:22:11.172Z,7.10
2023-04-07T15:24:39.073Z,8.80
2023-04-07T15:27:07.019Z,6.10
2023-04-07T15:29:34.912Z,7.53
2023-04-07T15:32:04.091Z,7.60
2023-04-07T15:34:32.004Z,5.53
2023-04-07T15:37:01.087Z,8.50
2023-04-07T15:39:30.188Z,9.10
2023-04-07T15:41:58.053Z,8.10
2023-04-07T15:44:25.953Z,7.53
2023-04-07T15:46:54.163Z,7.50
2023-04-07T15:49:25.755Z,9.03
2023-04-07T15:51:54.134Z,7.83
2023-04-07T15:54:21.988Z,8.00
2023-04-07T15:56:49.960Z,7.90
2023-04-07T15:59:17.932Z,7.03
2023-04-07T16:01:45.916Z,8.70
2023-04-07T16:04:14.302Z,10.13
2023-04-07T16:06:43.940Z,8.50
2023-04-07T16:09:11.828Z,9.93
2023-04-07T16:11:39.829Z,7.57
2023-04-07T16:14:09.215Z,8.07
2023-04-07T16:16:40.816Z,9.53
2023-04-07T16:19:08.829Z,8.10
2023-04-07T16:21:37.036Z,6.27
2023-04-07T16:24:06.657Z,6.13
2023-04-07T16:26:34.909Z,7.67
2023-04-07T16:29:03.082Z,5.37
2023-04-07T16:31:31.039Z,6.20
2023-04-07T16:33:58.974Z,5.37
2023-04-07T16:36:27.388Z,6.97
2023-04-07T16:38:55.530Z,7.40
2023-04-07T16:41:25.088Z,6.20
2023-04-07T16:43:53.022Z,8.53
2023-04-07T16:46:21.280Z,5.67
2023-04-07T16:48:49.579Z,7.77
2023-04-07T16:51:18.368Z,7.37
2023-04-07T16:53:46.776Z,5.80
2023-04-07T16:56:17.569Z,8.03
2023-04-07T16:58:47.136Z,8.47
2023-04-07T17:01:15.453Z,7.13
2023-04-07T17:03:43.999Z,7.20
2023-04-07T17:06:12.022Z,7.77
2023-04-07T17:08:40.451Z,8.07
2023-04-07T17:11:09.611Z,6.83
2023-04-07T17:13:39.979Z,8.30
2023-04-07T17:16:14.764Z,6.40
2023-04-07T17:18:42.756Z,7.03
2023-04-07T17:21:11.119Z,6.63
2023-04-07T17:23:39.303Z,5.23
2023-04-07T17:26:08.484Z,7.93
2023-04-07T17:28:36.420Z,6.17
2023-04-07T17:31:04.334Z,7.63
2023-04-07T17:33:33.678Z,7.73
2023-04-07T17:36:02.853Z,8.47
2023-04-07T17:38:31.366Z,5.30
2023-04-07T17:40:59.561Z,8.87
2023-04-07T17:43:28.552Z,13.53
2023-04-07T17:45:56.450Z,10.63
2023-04-07T17:48:24.994Z,7.57
2023-04-07T17:50:54.240Z,8.63
2023-04-07T17:53:22.128Z,7.00
2023-04-07T17:55:50.641Z,9.40
2023-04-07T17:58:20.067Z,9.10
2023-04-07T18:00:48.234Z,8.17
2023-04-07T18:03:16.621Z,8.53
2023-04-07T18:05:44.975Z,7.60
2023-04-07T18:08:14.882Z,8.47
2023-04-07T18:10:43.324Z,11.07
2023-04-07T18:13:11.627Z,10.47
2023-04-07T18:15:39.813Z,9.70
2023-04-07T18:18:07.836Z,7.87
2023-04-07T18:20:36.714Z,9.50
2023-04-07T18:23:04.603Z,8.87
2023-04-07T18:25:33.859Z,8.87
2023-04-07T18:28:02.416Z,8.67
2023-04-07T18:30:30.393Z,5.77
2023-04-07T18:32:58.300Z,12.10
2023-04-07T18:35:26.960Z,6.87
2023-04-07T18:37:54.857Z,8.07
2023-04-07T18:40:22.765Z,12.40
2023-04-07T18:42:52.843Z,11.87
2023-04-07T18:45:21.920Z,12.90
2023-04-07T18:47:50.024Z,11.67
2023-04-07T18:50:18.330Z,10.10
2023-04-07T18:52:46.295Z,9.13
2023-04-07T18:55:14.489Z,10.03
2023-04-07T18:57:42.391Z,9.07
2023-04-07T19:00:12.438Z,8.37
2023-04-07T19:02:44.499Z,7.63
2023-04-07T19:05:12.696Z,7.87
2023-04-07T19:07:40.644Z,10.50
2023-04-07T19:10:09.769Z,11.40
2023-04-07T19:12:38.162Z,9.83
2023-04-07T19:15:07.483Z,11.17
2023-04-07T19:17:37.390Z,8.67
2023-04-07T19:20:06.245Z,10.60
2023-04-07T19:22:34.360Z,13.43
2023-04-07T19:25:02.494Z,11.13
2023-04-07T19:27:31.309Z,10.77
2023-04-07T19:29:59.362Z,11.83
2023-04-07T19:32:28.168Z,7.57
2023-04-07T19:34:57.504Z,9.43
2023-04-07T19:37:25.659Z,12.77
2023-04-07T19:40:02.180Z,10.40
2023-04-07T19:42:31.512Z,9.90
2023-04-07T19:45:00.381Z,13.43
2023-04-07T19:47:28.259Z,13.90
2023-04-07T19:49:57.655Z,9.70
2023-04-07T19:52:25.802Z,10.90
2023-04-07T19:54:53.677Z,10.00
2023-04-07T19:57:21.771Z,8.87
2023-04-07T19:59:49.747Z,10.80
2023-04-07T20:02:17.783Z,11.90
2023-04-07T20:04:45.923Z,12.53
2023-04-07T20:07:15.539Z,11.53
2023-04-07T20:09:43.709Z,10.27
2023-04-07T20:12:11.734Z,11.03
2023-04-07T20:14:39.641Z,11.27
2023-04-07T20:17:07.750Z,9.63
2023-04-07T20:19:36.133Z,13.03
2023-04-07T20:22:04.505Z,14.60
2023-04-07T20:24:35.977Z,15.03
2023-04-07T20:27:04.011Z,14.60
2023-04-07T20:29:31.903Z,14.03
2023-04-07T20:31:59.831Z,11.83
2023-04-07T20:34:27.806Z,13.87
2023-04-07T20:36:55.822Z,9.63
2023-04-07T20:39:23.769Z,10.17
2023-04-07T20:41:53.004Z,13.20
2023-04-07T20:44:21.248Z,12.97
2023-04-07T20:46:49.163Z,13.20
2023-04-07T20:49:17.046Z,10.57
2023-04-07T20:51:44.886Z,13.17
2023-04-07T20:54:12.777Z,13.60
2023-04-07T20:56:42.847Z,17.53
2023-04-07T20:59:12.071Z,15.43
2023-04-07T21:01:40.030Z,13.27
2023-04-07T21:04:08.211Z,13.47
2023-04-07T21:06:36.191Z,10.50
2023-04-07T21:09:05.692Z,14.70
2023-04-07T21:11:33.588Z,14.03
2023-04-07T21:14:01.494Z,12.33
2023-04-07T21:16:31.384Z,13.53
2023-04-07T21:18:59.261Z,13.23
2023-04-07T21:21:27.694Z,13.67
2023-04-07T21:23:55.664Z,13.33
2023-04-07T21:26:23.593Z,16.80
2023-04-07T21:28:52.774Z,12.53
2023-04-07T21:31:25.930Z,16.13
2023-04-07T21:33:55.248Z,12.47
2023-04-07T21:36:23.244Z,14.30
2023-04-07T21:38:51.932Z,11.67
2023-04-07T21:41:19.839Z,11.93
2023-04-07T21:43:47.736Z,11.23
2023-04-07T21:46:17.709Z,10.97
2023-04-07T21:48:45.642Z,12.27
2023-04-07T21:51:17.365Z,16.40
2023-04-07T21:53:45.508Z,13.00
2023-04-07T21:56:13.860Z,10.87
2023-04-07T21:58:42.894Z,13.53
2023-04-07T22:01:10.817Z,11.33
2023-04-07T22:03:39.721Z,17.63
2023-04-07T22:06:08.556Z,12.57
2023-04-07T22:08:38.125Z,12.33
2023-04-07T22:11:06.454Z,12.53
2023-04-07T22:13:35.130Z,15.63
2023-04-07T22:16:03.159Z,11.70
2023-04-07T22:18:31.360Z,12.27
2023-04-07T22:20:59.252Z,18.70
2023-04-07T22:23:27.825Z,10.20
2023-04-07T22:25:57.607Z,15.30
2023-04-07T22:28:25.781Z,10.50
2023-04-07T22:30:53.685Z,13.90
2023-04-07T22:33:21.549Z,13.53
2023-04-07T22:35:49.765Z,10.13
2023-04-07T22:38:18.268Z,13.47
2023-04-07T22:40:46.439Z,13.57
2023-04-07T22:43:15.748Z,11.80
2023-04-07T22:45:43.628Z,13.90
2023-04-07T22:48:11.664Z,14.70
2023-04-07T22:50:39.570Z,17.10
2023-04-07T22:53:07.832Z,18.97
2023-04-07T22:55:36.303Z,12.10
2023-04-07T22:58:04.165Z,13.77
2023-04-07T23:00:33.619Z,14.57
2023-04-07T23:03:03.972Z,12.80
2023-04-07T23:05:32.052Z,15.43
2023-04-07T23:07:59.902Z,18.63
2023-04-07T23:10:27.766Z,14.47
2023-04-07T23:12:55.686Z,13.47
2023-04-07T23:15:27.212Z,12.13
2023-04-07T23:17:56.499Z,12.93
2023-04-07T23:20:24.598Z,17.93
2023-04-07T23:22:52.484Z,11.40
2023-04-07T23:25:20.683Z,12.57
2023-04-07T23:27:48.559Z,12.70
2023-04-07T23:30:16.824Z,13.73
2023-04-07T23:32:44.766Z,13.67
2023-04-07T23:35:16.455Z,13.87
2023-04-07T23:37:44.316Z,13.00
2023-04-07T23:40:13.453Z,10.47
2023-04-07T23:42:41.268Z,14.67
2023-04-07T23:45:09.849Z,14.53
2023-04-07T23:47:37.826Z,12.90
2023-04-07T23:50:06.604Z,14.83
2023-04-07T23:52:35.887Z,13.93
2023-04-07T23:55:03.936Z,17.30
2023-04-07T23:57:31.847Z,13.70
2023-04-07T23:59:59.709Z,21.70
